Decoded Metar for YPCC (COCOS ISL INTL A in AUSTRALIA) (IATA:N/A) | Meteo·Mobile Aviation Weather
aviador You're here:

YPCC Decoded Metar

COCOS ISL INTL A in AUSTRALIA
Report Time2019-02-20 00:30:00
UTC Time2019-02-20 01:01:53
Flight Rules vfr VFR
Wind110° at 09 kt
W.Decomp.*RWY 15: 7.2 kt HW 5.4 kt LCW
W.Rank110° ranks 2
Current wind is below 110° avg. (11.9)
Visibility9999 m
Phenomena:N/A
Clouds:Scattered 024 Hf
Expected CloudBase > 2,000 ft AGL from Temp-Dew spread
CeilingNone
Temp27°C (ISA +12)
Dew Point22°C (74% RH)
Heat Index29.2°C
QNH1014 hPa
Density Alt1,709 ft
Elevation10 ft
Report Wrong Elevation
Raw Report
YPCC 200030Z 11009KT 9999 SCT024 27/22 Q1014=

Extra information for YPCC:More info

Metar Taf Metar & Taf Last 4 Metars F.Rules Stats Wind Profile Meteogram Temp Stats Airport Information Weather charts Add Link Nearby VenuesMetar ALERT Operation Metar Decoded Social comments